createdAt,value
2023-01-09T00:01:40.643Z,87.96
2023-01-09T00:04:08.806Z,87.75
2023-01-09T00:06:37.500Z,88.79
2023-01-09T00:09:05.705Z,88.80
2023-01-09T00:11:33.685Z,88.85
2023-01-09T00:14:03.199Z,88.91
2023-01-09T00:16:31.361Z,89.16
2023-01-09T00:19:00.374Z,89.32
2023-01-09T00:21:28.359Z,88.34
2023-01-09T00:23:56.322Z,89.15
2023-01-09T00:26:24.632Z,89.17
2023-01-09T00:28:54.142Z,89.26
2023-01-09T00:31:23.446Z,89.35
2023-01-09T00:33:59.285Z,88.90
2023-01-09T00:36:27.715Z,89.16
2023-01-09T00:38:55.920Z,89.00
2023-01-09T00:41:28.675Z,89.03
2023-01-09T00:44:03.465Z,88.79
2023-01-09T00:46:38.610Z,89.00
2023-01-09T00:49:13.387Z,88.94
2023-01-09T00:51:43.435Z,89.20
2023-01-09T00:54:16.194Z,88.81
2023-01-09T00:56:44.770Z,88.93
2023-01-09T00:59:12.777Z,88.57
2023-01-09T01:01:42.376Z,89.13
2023-01-09T01:04:24.125Z,88.87
2023-01-09T01:07:21.182Z,88.98
2023-01-09T01:09:49.131Z,89.32
2023-01-09T01:12:20.384Z,89.25
2023-01-09T01:14:48.383Z,89.25
2023-01-09T01:17:17.661Z,89.37
2023-01-09T01:19:46.097Z,89.47
2023-01-09T01:22:14.078Z,88.89
2023-01-09T01:24:42.119Z,89.42
2023-01-09T01:27:10.093Z,89.11
2023-01-09T01:29:38.477Z,88.74
2023-01-09T01:32:06.755Z,89.08
2023-01-09T01:34:36.076Z,89.43
2023-01-09T01:37:04.058Z,89.21
2023-01-09T01:39:32.003Z,89.33
2023-01-09T01:42:00.147Z,89.52
2023-01-09T01:45:05.378Z,89.80
2023-01-09T01:47:42.490Z,89.71
2023-01-09T01:50:20.599Z,90.15
2023-01-09T01:53:05.892Z,89.21
2023-01-09T01:55:37.588Z,89.45
2023-01-09T01:58:10.420Z,89.25
2023-01-09T02:00:44.674Z,89.41
2023-01-09T02:03:17.303Z,88.95
2023-01-09T02:05:46.929Z,89.51
2023-01-09T02:08:14.727Z,89.13
2023-01-09T02:10:43.585Z,89.56
2023-01-09T02:13:13.253Z,89.60
2023-01-09T02:15:55.285Z,89.87
2023-01-09T02:18:40.865Z,89.78
2023-01-09T02:21:23.342Z,89.76
2023-01-09T02:24:14.104Z,89.68
2023-01-09T02:27:14.507Z,89.62
2023-01-09T02:30:24.856Z,90.01
2023-01-09T02:33:08.360Z,89.29
2023-01-09T02:36:10.597Z,89.52
2023-01-09T02:38:54.914Z,89.02
2023-01-09T02:41:37.419Z,89.00
2023-01-09T02:44:18.968Z,88.83
2023-01-09T02:46:48.657Z,88.93
2023-01-09T02:49:17.965Z,88.74
2023-01-09T02:51:54.055Z,88.20
2023-01-09T02:54:40.279Z,88.88
2023-01-09T02:57:43.767Z,88.46
2023-01-09T03:00:28.946Z,88.94
2023-01-09T03:03:11.177Z,88.39
2023-01-09T03:05:44.962Z,88.32
2023-01-09T03:08:18.215Z,88.57
2023-01-09T03:10:56.902Z,88.43
2023-01-09T03:13:31.367Z,88.73
2023-01-09T03:16:06.960Z,88.72
2023-01-09T03:18:40.329Z,88.67
2023-01-09T03:21:12.452Z,89.09
2023-01-09T03:23:53.299Z,88.56
2023-01-09T03:26:23.888Z,88.92
2023-01-09T03:28:52.967Z,88.66
2023-01-09T03:31:20.975Z,88.89
2023-01-09T03:33:50.422Z,88.30
2023-01-09T03:36:21.978Z,88.38
2023-01-09T03:38:51.370Z,87.70
2023-01-09T03:41:19.592Z,87.66
2023-01-09T03:43:48.837Z,87.98
2023-01-09T03:46:17.690Z,87.83
2023-01-09T03:48:45.804Z,87.86
2023-01-09T03:51:15.099Z,86.93
2023-01-09T03:53:43.033Z,87.46
2023-01-09T03:56:11.093Z,87.39
2023-01-09T03:58:39.001Z,86.83
2023-01-09T04:01:09.392Z,87.12
2023-01-09T04:03:37.482Z,86.52
2023-01-09T04:06:06.076Z,87.17
2023-01-09T04:08:35.607Z,86.78
2023-01-09T04:11:03.658Z,86.43
2023-01-09T04:13:31.581Z,87.14
2023-01-09T04:16:06.007Z,86.81
2023-01-09T04:18:33.928Z,86.12
2023-01-09T04:21:03.595Z,87.05
2023-01-09T04:23:31.415Z,86.34
2023-01-09T04:26:00.779Z,86.15
2023-01-09T04:28:28.835Z,86.18
2023-01-09T04:30:58.729Z,86.43
2023-01-09T04:33:26.663Z,86.52
2023-01-09T04:35:54.616Z,86.13
2023-01-09T04:38:22.605Z,86.16
2023-01-09T04:40:53.779Z,86.21
2023-01-09T04:43:23.083Z,85.96
2023-01-09T04:45:51.126Z,86.08
2023-01-09T04:48:19.885Z,86.17
2023-01-09T04:50:47.854Z,85.11
2023-01-09T04:53:15.747Z,84.96
2023-01-09T04:55:43.777Z,85.49
2023-01-09T04:58:11.748Z,85.85
2023-01-09T05:00:41.048Z,85.64
2023-01-09T05:03:08.996Z,86.17
2023-01-09T05:05:36.914Z,86.16
2023-01-09T05:08:05.979Z,86.59
2023-01-09T05:10:33.969Z,87.34
2023-01-09T05:13:01.952Z,87.24
2023-01-09T05:15:30.949Z,87.00
2023-01-09T05:18:00.414Z,87.54
2023-01-09T05:20:28.408Z,87.96
2023-01-09T05:22:56.426Z,88.64
2023-01-09T05:25:24.472Z,89.52
2023-01-09T05:27:52.475Z,89.35
2023-01-09T05:30:21.418Z,89.92
2023-01-09T05:32:49.385Z,90.74
2023-01-09T05:35:18.785Z,91.09
2023-01-09T05:37:54.876Z,90.88
2023-01-09T05:40:24.812Z,91.15
2023-01-09T05:42:56.818Z,91.02
2023-01-09T05:45:25.132Z,91.77
2023-01-09T05:47:57.876Z,91.25
2023-01-09T05:50:44.182Z,91.01
2023-01-09T05:53:12.262Z,91.91
2023-01-09T05:55:40.235Z,91.72
2023-01-09T05:58:10.864Z,91.80
2023-01-09T06:00:38.828Z,91.37
2023-01-09T06:03:07.051Z,92.43
2023-01-09T06:05:39.073Z,92.49
2023-01-09T06:08:27.436Z,92.38
2023-01-09T06:10:57.318Z,92.00
2023-01-09T06:13:27.834Z,93.23
2023-01-09T06:15:58.641Z,93.29
2023-01-09T06:18:29.991Z,92.94
2023-01-09T06:21:14.290Z,93.45
2023-01-09T06:23:42.310Z,92.89
2023-01-09T06:26:10.277Z,93.66
2023-01-09T06:28:38.272Z,93.27
2023-01-09T06:31:06.951Z,94.03
2023-01-09T06:33:37.765Z,93.36
2023-01-09T06:36:06.759Z,93.75
2023-01-09T06:38:36.335Z,93.72
2023-01-09T06:41:04.459Z,93.49
2023-01-09T06:43:32.354Z,93.55
2023-01-09T06:46:03.244Z,94.14
2023-01-09T06:48:31.217Z,93.16
2023-01-09T06:50:59.167Z,93.48
2023-01-09T06:53:27.539Z,93.71
2023-01-09T06:55:56.895Z,93.64
2023-01-09T06:58:24.891Z,92.99
2023-01-09T07:00:53.543Z,92.87
2023-01-09T07:03:24.549Z,93.28
2023-01-09T07:05:53.085Z,93.24
2023-01-09T07:08:22.236Z,93.22
2023-01-09T07:10:50.213Z,93.14
2023-01-09T07:13:19.499Z,93.76
2023-01-09T07:15:49.621Z,93.22
2023-01-09T07:18:17.603Z,92.89
2023-01-09T07:20:48.451Z,93.00
2023-01-09T07:23:19.054Z,92.97
2023-01-09T07:25:52.908Z,92.53
2023-01-09T07:28:22.212Z,93.19
2023-01-09T07:30:50.157Z,93.44
2023-01-09T07:33:18.196Z,93.12
2023-01-09T07:35:46.125Z,92.80
2023-01-09T07:38:14.297Z,93.08
2023-01-09T07:40:42.492Z,93.21
2023-01-09T07:43:10.443Z,93.57
2023-01-09T07:45:39.772Z,92.97
2023-01-09T07:48:08.083Z,93.62
2023-01-09T07:50:36.233Z,92.98
2023-01-09T07:53:04.207Z,93.35
2023-01-09T07:55:32.255Z,93.42
2023-01-09T07:58:00.243Z,93.21
2023-01-09T08:00:28.203Z,93.41
2023-01-09T08:02:57.607Z,93.11
2023-01-09T08:05:25.567Z,93.31
2023-01-09T08:07:53.561Z,93.62
2023-01-09T08:10:25.019Z,93.51
2023-01-09T08:12:53.118Z,93.74
2023-01-09T08:15:21.180Z,93.20
2023-01-09T08:17:52.009Z,93.70
2023-01-09T08:20:21.586Z,93.66
2023-01-09T08:22:54.013Z,92.85
2023-01-09T08:25:22.349Z,93.31
2023-01-09T08:27:50.320Z,93.44
2023-01-09T08:30:22.104Z,93.53
2023-01-09T08:32:51.996Z,93.31
2023-01-09T08:35:22.133Z,93.25
2023-01-09T08:37:53.010Z,93.30
2023-01-09T08:40:21.145Z,92.95
2023-01-09T08:43:06.430Z,92.97
2023-01-09T08:45:52.713Z,92.66
2023-01-09T08:48:22.753Z,92.73
2023-01-09T08:50:54.086Z,92.81
2023-01-09T08:53:22.083Z,92.89
2023-01-09T08:55:50.771Z,92.70
2023-01-09T08:58:18.674Z,92.54
2023-01-09T09:00:46.606Z,92.84
2023-01-09T09:03:14.652Z,93.46
2023-01-09T09:05:42.654Z,93.53
2023-01-09T09:08:12.576Z,92.76
2023-01-09T09:10:43.716Z,92.83
2023-01-09T09:13:11.642Z,92.56
2023-01-09T09:15:39.739Z,92.20
2023-01-09T09:18:09.216Z,92.10
2023-01-09T09:20:39.747Z,92.54
2023-01-09T09:23:08.708Z,92.92
2023-01-09T09:25:39.375Z,93.14
2023-01-09T09:28:08.423Z,92.70
2023-01-09T09:30:36.615Z,92.53
2023-01-09T09:33:05.940Z,92.34
2023-01-09T09:35:34.831Z,92.64
2023-01-09T09:38:06.128Z,92.67
2023-01-09T09:41:07.438Z,92.30
2023-01-09T09:44:27.907Z,92.02
2023-01-09T09:47:10.914Z,91.30
2023-01-09T09:49:52.793Z,91.74
2023-01-09T09:52:34.931Z,92.19
2023-01-09T09:55:17.754Z,92.27
2023-01-09T09:57:49.614Z,91.85
2023-01-09T10:00:22.773Z,91.50
2023-01-09T10:02:57.532Z,91.41
2023-01-09T10:05:32.025Z,90.99
2023-01-09T10:08:19.753Z,91.38
2023-01-09T10:10:55.353Z,91.49
2023-01-09T10:13:44.479Z,91.16
2023-01-09T10:16:31.304Z,91.04
2023-01-09T10:19:19.257Z,90.92
2023-01-09T10:22:03.666Z,91.33
2023-01-09T10:25:02.565Z,91.15
2023-01-09T10:28:00.410Z,90.54
2023-01-09T10:30:42.987Z,90.74
2023-01-09T10:33:35.072Z,90.09
2023-01-09T10:36:32.756Z,89.89
2023-01-09T10:39:08.460Z,90.03
2023-01-09T10:41:43.246Z,89.55
2023-01-09T10:44:22.124Z,89.99
2023-01-09T10:46:56.800Z,90.14
2023-01-09T10:49:27.374Z,89.98
2023-01-09T10:52:14.809Z,90.25
2023-01-09T10:54:52.586Z,90.32
2023-01-09T10:57:41.594Z,90.08
2023-01-09T11:00:22.330Z,90.49
2023-01-09T11:02:54.649Z,90.51
2023-01-09T11:05:27.770Z,89.74
2023-01-09T11:08:03.857Z,89.95
2023-01-09T11:10:49.118Z,90.09
2023-01-09T11:13:22.793Z,90.46
2023-01-09T11:16:19.066Z,90.18
2023-01-09T11:18:57.637Z,90.37
2023-01-09T11:21:35.736Z,89.37
2023-01-09T11:24:31.353Z,89.57
2023-01-09T11:27:27.641Z,88.86
2023-01-09T11:30:26.212Z,89.04
2023-01-09T11:32:55.966Z,88.56
2023-01-09T11:35:33.758Z,88.26
2023-01-09T11:38:09.200Z,88.19
2023-01-09T11:40:49.385Z,88.35
2023-01-09T11:43:32.630Z,88.83
2023-01-09T11:46:05.598Z,88.62
2023-01-09T11:48:41.440Z,85.99
2023-01-09T11:51:23.392Z,86.44
2023-01-09T11:54:20.159Z,86.70
2023-01-09T11:56:49.297Z,86.12
2023-01-09T11:59:20.650Z,85.51
2023-01-09T12:02:25.322Z,85.63
2023-01-09T12:04:59.503Z,84.26
2023-01-09T12:08:05.945Z,84.25
2023-01-09T12:11:03.473Z,83.58
2023-01-09T12:14:00.304Z,83.21
2023-01-09T12:16:39.853Z,83.18
2023-01-09T12:19:32.354Z,82.40
2023-01-09T12:22:17.718Z,81.93
2023-01-09T12:25:14.284Z,81.34
2023-01-09T12:28:21.679Z,80.52
2023-01-09T12:31:09.900Z,80.23
2023-01-09T12:33:52.339Z,81.01
2023-01-09T12:36:34.368Z,80.45
2023-01-09T12:39:17.703Z,80.74
2023-01-09T12:42:16.928Z,80.36
2023-01-09T12:44:56.410Z,80.52
2023-01-09T12:47:52.671Z,80.15
2023-01-09T12:50:49.220Z,79.26
2023-01-09T12:53:24.783Z,80.04
2023-01-09T12:56:01.952Z,80.25
2023-01-09T12:58:44.566Z,78.77
2023-01-09T13:01:19.832Z,78.66
2023-01-09T13:04:00.106Z,78.97
2023-01-09T13:06:32.596Z,79.11
2023-01-09T13:09:19.302Z,79.17
2023-01-09T13:12:02.998Z,79.24
2023-01-09T13:14:50.101Z,79.87
2023-01-09T13:17:26.103Z,79.77
2023-01-09T13:19:56.094Z,79.04
2023-01-09T13:22:28.628Z,79.22
2023-01-09T13:25:19.154Z,79.21
2023-01-09T13:28:13.575Z,79.35
2023-01-09T13:31:17.229Z,78.70
2023-01-09T13:33:52.517Z,78.71
2023-01-09T13:36:27.022Z,78.77
2023-01-09T13:38:57.167Z,79.03
2023-01-09T13:41:59.596Z,78.67
2023-01-09T13:44:29.847Z,78.82
2023-01-09T13:47:03.284Z,79.42
2023-01-09T13:49:34.488Z,79.06
2023-01-09T13:52:05.375Z,79.21
2023-01-09T13:55:21.047Z,79.50
2023-01-09T13:58:26.456Z,79.35
2023-01-09T14:01:02.654Z,79.34
2023-01-09T14:03:36.591Z,79.40
2023-01-09T14:06:18.549Z,79.36
2023-01-09T14:08:50.437Z,79.21
2023-01-09T14:11:29.036Z,78.92
2023-01-09T14:14:06.994Z,78.95
2023-01-09T14:16:38.834Z,78.32
2023-01-09T14:19:28.721Z,77.97
2023-01-09T14:21:59.134Z,78.18
2023-01-09T14:24:32.614Z,78.22
2023-01-09T14:27:02.435Z,78.15
2023-01-09T14:29:48.667Z,78.60
2023-01-09T14:32:46.857Z,79.14
2023-01-09T14:35:28.015Z,78.67
2023-01-09T14:38:33.095Z,78.45
2023-01-09T14:41:10.465Z,78.91
2023-01-09T14:43:52.863Z,78.50
2023-01-09T14:46:26.296Z,79.04
2023-01-09T14:49:17.465Z,79.23
2023-01-09T14:51:50.720Z,79.29
2023-01-09T14:54:30.029Z,79.97
2023-01-09T14:56:58.049Z,79.34
2023-01-09T14:59:26.042Z,80.07
2023-01-09T15:01:57.826Z,80.37
2023-01-09T15:04:34.766Z,81.35
2023-01-09T15:07:06.076Z,80.58
2023-01-09T15:09:45.317Z,80.98
2023-01-09T15:12:21.677Z,80.45
2023-01-09T15:14:55.257Z,79.72
2023-01-09T15:17:28.467Z,79.37
2023-01-09T15:19:57.614Z,78.79
2023-01-09T15:22:31.996Z,78.75
2023-01-09T15:25:15.814Z,78.60
2023-01-09T15:27:49.677Z,78.38
2023-01-09T15:30:23.271Z,78.16
2023-01-09T15:32:53.541Z,78.99
2023-01-09T15:35:21.930Z,78.63
2023-01-09T15:37:56.315Z,78.28
2023-01-09T15:40:39.472Z,78.29
2023-01-09T15:43:07.938Z,78.97
2023-01-09T15:45:42.881Z,78.81
2023-01-09T15:48:26.922Z,78.79
2023-01-09T15:50:59.477Z,79.31
2023-01-09T15:53:30.660Z,79.17
2023-01-09T15:56:16.143Z,79.48
2023-01-09T15:58:47.172Z,78.86
2023-01-09T16:01:31.283Z,78.87
2023-01-09T16:04:08.085Z,79.09
2023-01-09T16:06:39.486Z,79.26
2023-01-09T16:09:17.836Z,79.17
2023-01-09T16:11:53.054Z,79.87
2023-01-09T16:14:25.185Z,80.84
2023-01-09T16:16:55.680Z,82.03
2023-01-09T16:19:32.379Z,81.25
2023-01-09T16:22:02.481Z,82.20
2023-01-09T16:24:41.969Z,81.62
2023-01-09T16:27:30.553Z,82.46
2023-01-09T16:30:00.575Z,82.29
2023-01-09T16:32:32.068Z,82.25
2023-01-09T16:35:06.053Z,79.19
2023-01-09T16:37:37.268Z,79.62
2023-01-09T16:40:32.244Z,79.42
2023-01-09T16:43:01.576Z,79.85
2023-01-09T16:45:34.173Z,79.67
2023-01-09T16:48:03.190Z,79.49
2023-01-09T16:50:31.320Z,79.46
2023-01-09T16:53:12.161Z,79.22
2023-01-09T16:55:41.579Z,80.44
2023-01-09T16:58:18.713Z,80.60
2023-01-09T17:00:49.782Z,79.72
2023-01-09T17:03:20.076Z,80.29
2023-01-09T17:05:51.301Z,80.75
2023-01-09T17:08:24.411Z,80.22
2023-01-09T17:10:56.904Z,81.80
2023-01-09T17:13:26.043Z,81.82
2023-01-09T17:15:55.791Z,81.38
2023-01-09T17:18:25.681Z,80.88
2023-01-09T17:20:56.867Z,81.49
2023-01-09T17:23:26.082Z,81.52
2023-01-09T17:26:17.765Z,80.91
2023-01-09T17:28:50.269Z,79.92
2023-01-09T17:31:19.179Z,80.70
2023-01-09T17:33:47.634Z,80.45
2023-01-09T17:36:28.219Z,80.10
2023-01-09T17:38:56.397Z,79.66
2023-01-09T17:41:28.101Z,79.66
2023-01-09T17:44:01.577Z,80.32
2023-01-09T17:46:34.337Z,80.24
2023-01-09T17:49:03.805Z,80.33
2023-01-09T17:51:32.071Z,79.77
2023-01-09T17:54:00.792Z,80.37
2023-01-09T17:56:34.778Z,80.08
2023-01-09T17:59:02.818Z,80.08
2023-01-09T18:01:35.441Z,79.55
2023-01-09T18:04:11.198Z,79.64
2023-01-09T18:06:44.263Z,78.82
2023-01-09T18:09:23.456Z,78.75
2023-01-09T18:11:58.548Z,78.76
2023-01-09T18:14:31.817Z,78.59
2023-01-09T18:17:21.928Z,78.45
2023-01-09T18:19:56.821Z,79.17
2023-01-09T18:22:35.940Z,78.97
2023-01-09T18:25:11.456Z,79.05
2023-01-09T18:27:47.071Z,79.14
2023-01-09T18:30:22.787Z,79.32
2023-01-09T18:32:59.617Z,79.31
2023-01-09T18:35:33.880Z,78.75
2023-01-09T18:38:13.357Z,78.71
2023-01-09T18:40:44.309Z,78.29
2023-01-09T18:43:21.769Z,79.00
2023-01-09T18:45:54.043Z,79.14
2023-01-09T18:48:29.070Z,78.40
2023-01-09T18:51:08.848Z,79.34
2023-01-09T18:53:43.549Z,79.01
2023-01-09T18:56:23.004Z,79.07
2023-01-09T18:58:59.461Z,78.15
2023-01-09T19:01:33.804Z,77.85
2023-01-09T19:04:02.898Z,78.16
2023-01-09T19:06:32.283Z,77.98
2023-01-09T19:09:00.572Z,78.54
2023-01-09T19:11:28.634Z,78.81
2023-01-09T19:14:00.742Z,78.52
2023-01-09T19:16:28.835Z,78.20
2023-01-09T19:18:58.127Z,78.77
2023-01-09T19:21:26.771Z,78.71
2023-01-09T19:23:54.976Z,78.75
2023-01-09T19:26:26.585Z,78.12
2023-01-09T19:28:57.622Z,78.07
2023-01-09T19:31:30.367Z,78.21
2023-01-09T19:33:59.039Z,78.72
2023-01-09T19:36:30.065Z,78.26
2023-01-09T19:39:04.252Z,78.48
2023-01-09T19:41:32.943Z,78.43
2023-01-09T19:44:03.261Z,78.37
2023-01-09T19:46:33.449Z,78.94
2023-01-09T19:49:04.628Z,78.76
2023-01-09T19:51:35.746Z,78.40
2023-01-09T19:56:35.554Z,78.86
2023-01-09T19:59:08.873Z,78.49
2023-01-09T20:01:41.559Z,78.20
2023-01-09T20:04:14.996Z,78.75
2023-01-09T20:06:48.600Z,78.47
2023-01-09T20:09:21.497Z,78.60
2023-01-09T20:11:49.974Z,78.95
2023-01-09T20:14:20.873Z,78.83
2023-01-09T20:16:53.998Z,78.76
2023-01-09T20:19:24.042Z,78.56
2023-01-09T20:21:52.082Z,78.69
2023-01-09T20:24:20.274Z,78.99
2023-01-09T20:26:48.271Z,78.74
2023-01-09T20:29:18.353Z,78.74
2023-01-09T20:31:47.953Z,79.10
2023-01-09T20:34:16.682Z,79.34
2023-01-09T20:36:44.989Z,79.53
2023-01-09T20:39:13.625Z,79.53
2023-01-09T20:41:41.707Z,79.15
2023-01-09T20:44:15.731Z,79.16
2023-01-09T20:46:48.210Z,78.83
2023-01-09T20:49:19.136Z,79.34
2023-01-09T20:51:50.562Z,79.21
2023-01-09T20:54:21.596Z,79.35
2023-01-09T20:56:51.882Z,79.37
2023-01-09T20:59:22.103Z,78.84
2023-01-09T21:01:54.709Z,79.11
2023-01-09T21:04:22.821Z,79.74
2023-01-09T21:06:52.554Z,79.62
2023-01-09T21:09:22.810Z,79.47
2023-01-09T21:11:50.661Z,79.45
2023-01-09T21:14:18.756Z,78.84
2023-01-09T21:16:54.257Z,78.69
2023-01-09T21:19:24.594Z,78.60
2023-01-09T21:21:53.597Z,78.67
2023-01-09T21:24:26.366Z,78.02
2023-01-09T21:26:54.355Z,78.22
2023-01-09T21:29:24.155Z,78.55
2023-01-09T21:31:52.418Z,78.53
2023-01-09T21:34:23.121Z,78.29
2023-01-09T21:36:52.588Z,78.44
2023-01-09T21:39:24.409Z,78.26
2023-01-09T21:42:09.835Z,78.43
2023-01-09T21:44:55.446Z,78.63
2023-01-09T21:47:23.940Z,78.28
2023-01-09T21:49:52.301Z,77.92
2023-01-09T21:52:22.015Z,77.79
2023-01-09T21:54:49.843Z,77.82
2023-01-09T21:57:18.222Z,77.64
2023-01-09T21:59:46.194Z,77.86
2023-01-09T22:02:15.875Z,78.45
2023-01-09T22:04:48.220Z,78.19
2023-01-09T22:07:19.795Z,78.18
2023-01-09T22:09:49.379Z,78.06
2023-01-09T22:12:20.199Z,78.38
2023-01-09T22:14:48.586Z,78.41
2023-01-09T22:17:16.674Z,78.60
2023-01-09T22:19:44.622Z,78.40
2023-01-09T22:22:12.861Z,78.60
2023-01-09T22:24:41.088Z,78.43
2023-01-09T22:27:10.482Z,78.32
2023-01-09T22:29:38.479Z,78.24
2023-01-09T22:32:06.651Z,78.53
2023-01-09T22:34:37.363Z,78.33
2023-01-09T22:37:05.422Z,78.57
2023-01-09T22:39:33.509Z,78.67
2023-01-09T22:42:01.762Z,78.58
2023-01-09T22:44:33.270Z,78.98
2023-01-09T22:47:01.317Z,79.11
2023-01-09T22:49:33.476Z,78.86
2023-01-09T22:52:09.193Z,79.05
2023-01-09T22:54:37.130Z,79.34
2023-01-09T22:57:07.646Z,78.80
2023-01-09T22:59:36.984Z,78.85
2023-01-09T23:02:05.072Z,79.21
2023-01-09T23:04:33.105Z,79.05
2023-01-09T23:07:01.209Z,79.14
2023-01-09T23:09:29.425Z,78.87
2023-01-09T23:12:03.240Z,80.07
2023-01-09T23:14:35.909Z,79.97
2023-01-09T23:17:07.462Z,79.93
2023-01-09T23:19:35.683Z,79.83
2023-01-09T23:22:05.003Z,79.80
2023-01-09T23:24:35.730Z,80.15
2023-01-09T23:27:04.329Z,80.15
2023-01-09T23:29:32.375Z,79.29
2023-01-09T23:32:00.375Z,79.86
2023-01-09T23:34:30.043Z,79.87
2023-01-09T23:36:58.037Z,79.86
2023-01-09T23:39:26.103Z,80.18
2023-01-09T23:42:11.433Z,80.37
2023-01-09T23:44:39.351Z,79.70
2023-01-09T23:47:07.385Z,79.61
2023-01-09T23:49:36.746Z,80.04
2023-01-09T23:52:06.545Z,80.42
2023-01-09T23:54:34.710Z,80.07
2023-01-09T23:57:02.687Z,81.27
2023-01-09T23:59:30.795Z,81.53
